sensor_id;sensor_type;location;lat;lon;timestamp;P1;durP1;ratioP1;P2;durP2;ratioP2
12699;SDS011;6414;49.570;6.060;2024-03-06T00:01:11;0.33;;;0.33;;
12699;SDS011;6414;49.570;6.060;2024-03-06T00:03:57;0.73;;;0.40;;
12699;SDS011;6414;49.570;6.060;2024-03-06T00:06:43;0.40;;;0.40;;
12699;SDS011;6414;49.570;6.060;2024-03-06T00:09:29;0.63;;;0.50;;
12699;SDS011;6414;49.570;6.060;2024-03-06T00:12:14;0.30;;;0.30;;
12699;SDS011;6414;49.570;6.060;2024-03-06T00:15:00;0.50;;;0.50;;
12699;SDS011;6414;49.570;6.060;2024-03-06T00:17:46;0.30;;;0.30;;
12699;SDS011;6414;49.570;6.060;2024-03-06T00:20:32;0.60;;;0.60;;
12699;SDS011;6414;49.570;6.060;2024-03-06T00:23:18;0.70;;;0.40;;
12699;SDS011;6414;49.570;6.060;2024-03-06T00:26:04;0.63;;;0.63;;
12699;SDS011;6414;49.570;6.060;2024-03-06T00:28:49;0.10;;;0.10;;
12699;SDS011;6414;49.570;6.060;2024-03-06T00:31:35;0.30;;;0.30;;
12699;SDS011;6414;49.570;6.060;2024-03-06T00:34:21;0.27;;;0.27;;
12699;SDS011;6414;49.570;6.060;2024-03-06T00:37:07;0.37;;;0.37;;
12699;SDS011;6414;49.570;6.060;2024-03-06T00:39:53;0.93;;;0.90;;
12699;SDS011;6414;49.570;6.060;2024-03-06T00:42:39;0.27;;;0.27;;
12699;SDS011;6414;49.570;6.060;2024-03-06T00:45:25;1.40;;;0.87;;
12699;SDS011;6414;49.570;6.060;2024-03-06T00:48:10;0.70;;;0.63;;
12699;SDS011;6414;49.570;6.060;2024-03-06T00:50:56;0.30;;;0.30;;
12699;SDS011;6414;49.570;6.060;2024-03-06T00:53:41;5.93;;;1.20;;
12699;SDS011;6414;49.570;6.060;2024-03-06T00:56:28;2.30;;;1.48;;
12699;SDS011;6414;49.570;6.060;2024-03-06T00:59:13;0.53;;;0.53;;
12699;SDS011;6414;49.570;6.060;2024-03-06T01:01:59;0.60;;;0.60;;
12699;SDS011;6414;49.570;6.060;2024-03-06T01:04:45;1.80;;;0.73;;
12699;SDS011;6414;49.570;6.060;2024-03-06T01:07:31;3.33;;;1.23;;
12699;SDS011;6414;49.570;6.060;2024-03-06T01:10:17;0.23;;;0.23;;
12699;SDS011;6414;49.570;6.060;2024-03-06T01:13:03;0.87;;;0.67;;
12699;SDS011;6414;49.570;6.060;2024-03-06T01:15:49;0.77;;;0.67;;
12699;SDS011;6414;49.570;6.060;2024-03-06T01:18:34;0.60;;;0.60;;
12699;SDS011;6414;49.570;6.060;2024-03-06T01:21:20;3.08;;;1.87;;
12699;SDS011;6414;49.570;6.060;2024-03-06T01:24:06;4.33;;;1.07;;
12699;SDS011;6414;49.570;6.060;2024-03-06T01:26:52;0.33;;;0.20;;
12699;SDS011;6414;49.570;6.060;2024-03-06T01:29:38;3.17;;;0.97;;
12699;SDS011;6414;49.570;6.060;2024-03-06T01:32:23;1.97;;;0.83;;
12699;SDS011;6414;49.570;6.060;2024-03-06T01:35:09;0.80;;;0.60;;
12699;SDS011;6414;49.570;6.060;2024-03-06T01:37:55;2.97;;;1.47;;
12699;SDS011;6414;49.570;6.060;2024-03-06T01:40:44;5.10;;;2.40;;
12699;SDS011;6414;49.570;6.060;2024-03-06T01:43:36;0.97;;;0.80;;
12699;SDS011;6414;49.570;6.060;2024-03-06T01:46:16;1.30;;;0.60;;
12699;SDS011;6414;49.570;6.060;2024-03-06T01:49:02;1.13;;;1.07;;
12699;SDS011;6414;49.570;6.060;2024-03-06T01:51:51;2.87;;;0.70;;
12699;SDS011;6414;49.570;6.060;2024-03-06T01:54:39;0.73;;;0.50;;
12699;SDS011;6414;49.570;6.060;2024-03-06T01:57:25;1.33;;;0.70;;
12699;SDS011;6414;49.570;6.060;2024-03-06T02:00:10;1.23;;;1.17;;
12699;SDS011;6414;49.570;6.060;2024-03-06T02:02:57;0.40;;;0.40;;
12699;SDS011;6414;49.570;6.060;2024-03-06T02:05:42;1.40;;;0.77;;
12699;SDS011;6414;49.570;6.060;2024-03-06T02:08:29;0.50;;;0.50;;
12699;SDS011;6414;49.570;6.060;2024-03-06T02:11:14;1.67;;;1.60;;
12699;SDS011;6414;49.570;6.060;2024-03-06T02:14:00;1.20;;;1.07;;
12699;SDS011;6414;49.570;6.060;2024-03-06T02:16:46;1.03;;;1.03;;
12699;SDS011;6414;49.570;6.060;2024-03-06T02:19:41;1.70;;;1.60;;
12699;SDS011;6414;49.570;6.060;2024-03-06T02:22:26;3.00;;;2.22;;
12699;SDS011;6414;49.570;6.060;2024-03-06T02:25:12;2.47;;;0.90;;
12699;SDS011;6414;49.570;6.060;2024-03-06T02:27:58;2.87;;;1.00;;
12699;SDS011;6414;49.570;6.060;2024-03-06T02:30:44;0.63;;;0.63;;
12699;SDS011;6414;49.570;6.060;2024-03-06T02:33:30;7.32;;;2.20;;
12699;SDS011;6414;49.570;6.060;2024-03-06T02:36:16;1.13;;;1.13;;
12699;SDS011;6414;49.570;6.060;2024-03-06T02:39:02;1.97;;;0.97;;
12699;SDS011;6414;49.570;6.060;2024-03-06T02:41:48;7.32;;;2.62;;
12699;SDS011;6414;49.570;6.060;2024-03-06T02:44:34;1.30;;;1.00;;
12699;SDS011;6414;49.570;6.060;2024-03-06T02:47:19;1.10;;;0.80;;
12699;SDS011;6414;49.570;6.060;2024-03-06T02:50:05;0.87;;;0.40;;
12699;SDS011;6414;49.570;6.060;2024-03-06T02:52:51;0.70;;;0.70;;
12699;SDS011;6414;49.570;6.060;2024-03-06T02:55:37;1.57;;;0.87;;
12699;SDS011;6414;49.570;6.060;2024-03-06T02:58:23;0.83;;;0.77;;
12699;SDS011;6414;49.570;6.060;2024-03-06T03:01:08;3.67;;;2.53;;
12699;SDS011;6414;49.570;6.060;2024-03-06T03:03:54;5.87;;;2.67;;
12699;SDS011;6414;49.570;6.060;2024-03-06T03:06:40;3.83;;;2.30;;
12699;SDS011;6414;49.570;6.060;2024-03-06T03:09:25;1.97;;;1.10;;
12699;SDS011;6414;49.570;6.060;2024-03-06T03:12:11;0.87;;;0.77;;
12699;SDS011;6414;49.570;6.060;2024-03-06T03:14:57;1.00;;;1.00;;
12699;SDS011;6414;49.570;6.060;2024-03-06T03:17:43;0.37;;;0.37;;
12699;SDS011;6414;49.570;6.060;2024-03-06T03:20:29;0.83;;;0.83;;
12699;SDS011;6414;49.570;6.060;2024-03-06T03:23:15;1.17;;;1.03;;
12699;SDS011;6414;49.570;6.060;2024-03-06T03:26:00;0.83;;;0.83;;
12699;SDS011;6414;49.570;6.060;2024-03-06T03:28:46;0.60;;;0.60;;
12699;SDS011;6414;49.570;6.060;2024-03-06T03:31:32;0.33;;;0.33;;
12699;SDS011;6414;49.570;6.060;2024-03-06T03:34:18;0.70;;;0.53;;
12699;SDS011;6414;49.570;6.060;2024-03-06T03:37:04;0.40;;;0.40;;
12699;SDS011;6414;49.570;6.060;2024-03-06T03:39:49;5.13;;;0.57;;
12699;SDS011;6414;49.570;6.060;2024-03-06T03:42:36;3.70;;;1.40;;
12699;SDS011;6414;49.570;6.060;2024-03-06T03:45:21;0.50;;;0.50;;
12699;SDS011;6414;49.570;6.060;2024-03-06T03:48:08;0.80;;;0.47;;
12699;SDS011;6414;49.570;6.060;2024-03-06T03:50:53;0.90;;;0.87;;
12699;SDS011;6414;49.570;6.060;2024-03-06T03:53:39;12.53;;;1.27;;
12699;SDS011;6414;49.570;6.060;2024-03-06T03:56:25;1.33;;;1.20;;
12699;SDS011;6414;49.570;6.060;2024-03-06T03:59:11;0.67;;;0.30;;
12699;SDS011;6414;49.570;6.060;2024-03-06T04:01:56;0.77;;;0.77;;
12699;SDS011;6414;49.570;6.060;2024-03-06T04:04:43;0.57;;;0.57;;
12699;SDS011;6414;49.570;6.060;2024-03-06T04:07:28;1.10;;;0.80;;
12699;SDS011;6414;49.570;6.060;2024-03-06T04:10:14;3.75;;;2.47;;
12699;SDS011;6414;49.570;6.060;2024-03-06T04:13:00;4.45;;;2.55;;
12699;SDS011;6414;49.570;6.060;2024-03-06T04:15:45;1.43;;;1.07;;
12699;SDS011;6414;49.570;6.060;2024-03-06T04:18:31;1.27;;;1.13;;
12699;SDS011;6414;49.570;6.060;2024-03-06T04:21:17;0.40;;;0.40;;
12699;SDS011;6414;49.570;6.060;2024-03-06T04:24:03;1.17;;;1.07;;
12699;SDS011;6414;49.570;6.060;2024-03-06T04:26:49;0.20;;;0.20;;
12699;SDS011;6414;49.570;6.060;2024-03-06T04:29:34;0.33;;;0.30;;
12699;SDS011;6414;49.570;6.060;2024-03-06T04:32:20;1.37;;;0.83;;
12699;SDS011;6414;49.570;6.060;2024-03-06T04:35:06;3.67;;;1.23;;
12699;SDS011;6414;49.570;6.060;2024-03-06T04:37:52;0.30;;;0.30;;
12699;SDS011;6414;49.570;6.060;2024-03-06T04:40:37;0.57;;;0.57;;
12699;SDS011;6414;49.570;6.060;2024-03-06T04:43:23;0.77;;;0.77;;
12699;SDS011;6414;49.570;6.060;2024-03-06T04:46:12;1.43;;;0.50;;
12699;SDS011;6414;49.570;6.060;2024-03-06T04:48:55;0.47;;;0.40;;
12699;SDS011;6414;49.570;6.060;2024-03-06T04:51:40;3.17;;;1.47;;
12699;SDS011;6414;49.570;6.060;2024-03-06T04:54:27;1.23;;;1.13;;
12699;SDS011;6414;49.570;6.060;2024-03-06T04:57:12;0.40;;;0.40;;
12699;SDS011;6414;49.570;6.060;2024-03-06T04:59:58;2.73;;;1.10;;
12699;SDS011;6414;49.570;6.060;2024-03-06T05:02:44;0.60;;;0.60;;
12699;SDS011;6414;49.570;6.060;2024-03-06T05:05:29;1.40;;;0.83;;
12699;SDS011;6414;49.570;6.060;2024-03-06T05:08:15;0.47;;;0.47;;
12699;SDS011;6414;49.570;6.060;2024-03-06T05:11:01;3.78;;;2.62;;
12699;SDS011;6414;49.570;6.060;2024-03-06T05:13:46;5.05;;;3.05;;
12699;SDS011;6414;49.570;6.060;2024-03-06T05:16:33;3.73;;;1.50;;
12699;SDS011;6414;49.570;6.060;2024-03-06T05:19:18;3.58;;;2.60;;
12699;SDS011;6414;49.570;6.060;2024-03-06T05:22:04;6.68;;;3.33;;
12699;SDS011;6414;49.570;6.060;2024-03-06T05:24:50;1.00;;;0.97;;
12699;SDS011;6414;49.570;6.060;2024-03-06T05:27:36;2.20;;;1.17;;
12699;SDS011;6414;49.570;6.060;2024-03-06T05:30:22;1.17;;;0.70;;
12699;SDS011;6414;49.570;6.060;2024-03-06T05:33:08;1.90;;;0.90;;
12699;SDS011;6414;49.570;6.060;2024-03-06T05:35:54;1.07;;;0.97;;
12699;SDS011;6414;49.570;6.060;2024-03-06T05:38:39;1.07;;;1.07;;
12699;SDS011;6414;49.570;6.060;2024-03-06T05:41:25;0.57;;;0.50;;
12699;SDS011;6414;49.570;6.060;2024-03-06T05:44:11;0.33;;;0.33;;
12699;SDS011;6414;49.570;6.060;2024-03-06T05:47:00;0.63;;;0.63;;
12699;SDS011;6414;49.570;6.060;2024-03-06T05:49:46;0.43;;;0.43;;
12699;SDS011;6414;49.570;6.060;2024-03-06T05:52:32;0.30;;;0.30;;
12699;SDS011;6414;49.570;6.060;2024-03-06T05:55:18;2.83;;;2.13;;
12699;SDS011;6414;49.570;6.060;2024-03-06T05:58:03;1.87;;;1.77;;
12699;SDS011;6414;49.570;6.060;2024-03-06T06:00:49;1.57;;;1.47;;
12699;SDS011;6414;49.570;6.060;2024-03-06T06:03:35;2.53;;;1.93;;
12699;SDS011;6414;49.570;6.060;2024-03-06T06:06:21;1.83;;;1.53;;
12699;SDS011;6414;49.570;6.060;2024-03-06T06:09:06;2.20;;;2.00;;
12699;SDS011;6414;49.570;6.060;2024-03-06T06:11:52;0.93;;;0.83;;
12699;SDS011;6414;49.570;6.060;2024-03-06T06:14:38;4.72;;;2.78;;
12699;SDS011;6414;49.570;6.060;2024-03-06T06:17:23;3.27;;;1.07;;
12699;SDS011;6414;49.570;6.060;2024-03-06T06:20:10;2.50;;;1.23;;
12699;SDS011;6414;49.570;6.060;2024-03-06T06:22:55;4.13;;;3.57;;
12699;SDS011;6414;49.570;6.060;2024-03-06T06:25:41;52.95;;;22.27;;
12699;SDS011;6414;49.570;6.060;2024-03-06T06:28:27;43.83;;;19.80;;
12699;SDS011;6414;49.570;6.060;2024-03-06T06:31:13;11.27;;;6.70;;
12699;SDS011;6414;49.570;6.060;2024-03-06T06:33:58;4.10;;;2.77;;
12699;SDS011;6414;49.570;6.060;2024-03-06T06:36:45;2.87;;;1.70;;
12699;SDS011;6414;49.570;6.060;2024-03-06T06:39:30;1.80;;;1.23;;
12699;SDS011;6414;49.570;6.060;2024-03-06T06:42:16;1.23;;;1.23;;
12699;SDS011;6414;49.570;6.060;2024-03-06T06:45:02;0.93;;;0.93;;
12699;SDS011;6414;49.570;6.060;2024-03-06T06:47:48;0.63;;;0.63;;
12699;SDS011;6414;49.570;6.060;2024-03-06T06:50:33;0.80;;;0.80;;
12699;SDS011;6414;49.570;6.060;2024-03-06T06:53:19;0.93;;;0.63;;
12699;SDS011;6414;49.570;6.060;2024-03-06T06:56:05;2.17;;;1.10;;
12699;SDS011;6414;49.570;6.060;2024-03-06T06:58:51;0.70;;;0.70;;
12699;SDS011;6414;49.570;6.060;2024-03-06T07:01:37;2.23;;;1.83;;
12699;SDS011;6414;49.570;6.060;2024-03-06T07:04:23;1.40;;;0.97;;
12699;SDS011;6414;49.570;6.060;2024-03-06T07:07:08;6.10;;;3.62;;
12699;SDS011;6414;49.570;6.060;2024-03-06T07:09:54;0.87;;;0.83;;
12699;SDS011;6414;49.570;6.060;2024-03-06T07:12:40;1.20;;;0.93;;
12699;SDS011;6414;49.570;6.060;2024-03-06T07:15:26;0.73;;;0.73;;
12699;SDS011;6414;49.570;6.060;2024-03-06T07:18:12;0.97;;;0.87;;
12699;SDS011;6414;49.570;6.060;2024-03-06T07:20:58;0.47;;;0.47;;
12699;SDS011;6414;49.570;6.060;2024-03-06T07:23:44;0.97;;;0.53;;
12699;SDS011;6414;49.570;6.060;2024-03-06T07:26:33;0.40;;;0.40;;
12699;SDS011;6414;49.570;6.060;2024-03-06T07:29:19;3.08;;;2.37;;
12699;SDS011;6414;49.570;6.060;2024-03-06T07:32:04;0.50;;;0.43;;
12699;SDS011;6414;49.570;6.060;2024-03-06T07:34:51;1.40;;;1.33;;
12699;SDS011;6414;49.570;6.060;2024-03-06T07:37:36;0.60;;;0.60;;
12699;SDS011;6414;49.570;6.060;2024-03-06T07:40:22;0.83;;;0.83;;
12699;SDS011;6414;49.570;6.060;2024-03-06T07:43:08;1.07;;;1.07;;
12699;SDS011;6414;49.570;6.060;2024-03-06T07:45:54;1.27;;;1.17;;
12699;SDS011;6414;49.570;6.060;2024-03-06T07:48:42;2.03;;;1.13;;
12699;SDS011;6414;49.570;6.060;2024-03-06T07:51:29;6.68;;;3.90;;
12699;SDS011;6414;49.570;6.060;2024-03-06T07:54:17;1.50;;;0.90;;
12699;SDS011;6414;49.570;6.060;2024-03-06T07:57:02;5.97;;;2.00;;
12699;SDS011;6414;49.570;6.060;2024-03-06T07:59:48;3.20;;;1.07;;
12699;SDS011;6414;49.570;6.060;2024-03-06T08:02:34;0.63;;;0.63;;
12699;SDS011;6414;49.570;6.060;2024-03-06T08:05:20;2.03;;;0.97;;
12699;SDS011;6414;49.570;6.060;2024-03-06T08:08:05;1.23;;;1.13;;
12699;SDS011;6414;49.570;6.060;2024-03-06T08:10:51;1.30;;;1.10;;
12699;SDS011;6414;49.570;6.060;2024-03-06T08:13:37;10.80;;;1.80;;
12699;SDS011;6414;49.570;6.060;2024-03-06T08:16:22;1.23;;;1.10;;
12699;SDS011;6414;49.570;6.060;2024-03-06T08:19:08;1.13;;;1.10;;
12699;SDS011;6414;49.570;6.060;2024-03-06T08:21:53;1.07;;;0.97;;
12699;SDS011;6414;49.570;6.060;2024-03-06T08:24:40;1.87;;;1.77;;
12699;SDS011;6414;49.570;6.060;2024-03-06T08:27:26;1.60;;;1.50;;
12699;SDS011;6414;49.570;6.060;2024-03-06T08:30:11;1.87;;;1.30;;
12699;SDS011;6414;49.570;6.060;2024-03-06T08:32:57;2.37;;;1.70;;
12699;SDS011;6414;49.570;6.060;2024-03-06T08:35:42;2.70;;;1.77;;
12699;SDS011;6414;49.570;6.060;2024-03-06T08:38:28;4.70;;;2.85;;
12699;SDS011;6414;49.570;6.060;2024-03-06T08:41:14;5.23;;;2.40;;
12699;SDS011;6414;49.570;6.060;2024-03-06T08:44:00;1.50;;;1.33;;
12699;SDS011;6414;49.570;6.060;2024-03-06T08:46:46;1.13;;;0.53;;
12699;SDS011;6414;49.570;6.060;2024-03-06T08:49:33;1.90;;;1.30;;
12699;SDS011;6414;49.570;6.060;2024-03-06T08:52:19;2.30;;;1.30;;
12699;SDS011;6414;49.570;6.060;2024-03-06T08:55:04;1.57;;;1.40;;
12699;SDS011;6414;49.570;6.060;2024-03-06T08:57:50;1.20;;;1.20;;
12699;SDS011;6414;49.570;6.060;2024-03-06T09:00:35;4.40;;;3.17;;
12699;SDS011;6414;49.570;6.060;2024-03-06T09:03:21;8.82;;;5.65;;
12699;SDS011;6414;49.570;6.060;2024-03-06T09:06:07;4.63;;;2.77;;
12699;SDS011;6414;49.570;6.060;2024-03-06T09:08:53;6.50;;;3.03;;
12699;SDS011;6414;49.570;6.060;2024-03-06T09:11:39;2.43;;;1.40;;
12699;SDS011;6414;49.570;6.060;2024-03-06T09:14:24;6.10;;;3.62;;
12699;SDS011;6414;49.570;6.060;2024-03-06T09:17:11;2.13;;;1.40;;
12699;SDS011;6414;49.570;6.060;2024-03-06T09:19:59;1.83;;;1.33;;
12699;SDS011;6414;49.570;6.060;2024-03-06T09:22:45;1.30;;;1.20;;
12699;SDS011;6414;49.570;6.060;2024-03-06T09:25:31;2.20;;;2.00;;
12699;SDS011;6414;49.570;6.060;2024-03-06T09:28:17;3.87;;;1.47;;
12699;SDS011;6414;49.570;6.060;2024-03-06T09:31:03;5.53;;;2.87;;
12699;SDS011;6414;49.570;6.060;2024-03-06T09:33:50;4.43;;;3.33;;
12699;SDS011;6414;49.570;6.060;2024-03-06T09:36:36;4.53;;;3.07;;
12699;SDS011;6414;49.570;6.060;2024-03-06T09:39:22;4.37;;;3.37;;
12699;SDS011;6414;49.570;6.060;2024-03-06T09:42:07;2.20;;;2.00;;
12699;SDS011;6414;49.570;6.060;2024-03-06T09:44:53;4.23;;;2.17;;
12699;SDS011;6414;49.570;6.060;2024-03-06T09:47:39;3.03;;;2.40;;
12699;SDS011;6414;49.570;6.060;2024-03-06T09:50:25;2.90;;;1.70;;
12699;SDS011;6414;49.570;6.060;2024-03-06T09:53:12;3.43;;;1.67;;
12699;SDS011;6414;49.570;6.060;2024-03-06T09:55:57;1.00;;;1.00;;
12699;SDS011;6414;49.570;6.060;2024-03-06T09:58:43;4.20;;;2.43;;
12699;SDS011;6414;49.570;6.060;2024-03-06T10:01:29;3.10;;;1.90;;
12699;SDS011;6414;49.570;6.060;2024-03-06T10:04:21;4.25;;;2.03;;
12699;SDS011;6414;49.570;6.060;2024-03-06T10:07:06;2.97;;;1.63;;
12699;SDS011;6414;49.570;6.060;2024-03-06T10:09:52;3.90;;;2.30;;
12699;SDS011;6414;49.570;6.060;2024-03-06T10:12:38;5.33;;;2.47;;
12699;SDS011;6414;49.570;6.060;2024-03-06T10:15:24;3.90;;;1.90;;
12699;SDS011;6414;49.570;6.060;2024-03-06T10:18:10;2.13;;;1.67;;
12699;SDS011;6414;49.570;6.060;2024-03-06T10:20:56;4.97;;;1.77;;
12699;SDS011;6414;49.570;6.060;2024-03-06T10:23:42;3.97;;;1.77;;
12699;SDS011;6414;49.570;6.060;2024-03-06T10:26:30;2.27;;;1.70;;
12699;SDS011;6414;49.570;6.060;2024-03-06T10:29:15;1.07;;;1.00;;
12699;SDS011;6414;49.570;6.060;2024-03-06T10:31:59;1.53;;;1.20;;
12699;SDS011;6414;49.570;6.060;2024-03-06T10:34:45;1.40;;;1.27;;
12699;SDS011;6414;49.570;6.060;2024-03-06T10:37:31;4.20;;;1.57;;
12699;SDS011;6414;49.570;6.060;2024-03-06T10:40:17;1.97;;;1.40;;
12699;SDS011;6414;49.570;6.060;2024-03-06T10:43:03;1.67;;;1.57;;
12699;SDS011;6414;49.570;6.060;2024-03-06T10:45:49;3.97;;;2.33;;
12699;SDS011;6414;49.570;6.060;2024-03-06T10:48:34;3.53;;;1.30;;
12699;SDS011;6414;49.570;6.060;2024-03-06T10:51:20;1.87;;;1.73;;
12699;SDS011;6414;49.570;6.060;2024-03-06T10:54:07;1.50;;;0.80;;
12699;SDS011;6414;49.570;6.060;2024-03-06T10:56:52;2.67;;;1.67;;
12699;SDS011;6414;49.570;6.060;2024-03-06T10:59:38;2.57;;;1.13;;
12699;SDS011;6414;49.570;6.060;2024-03-06T11:02:24;5.40;;;3.33;;
12699;SDS011;6414;49.570;6.060;2024-03-06T11:05:10;2.20;;;1.60;;
12699;SDS011;6414;49.570;6.060;2024-03-06T11:07:56;3.00;;;1.80;;
12699;SDS011;6414;49.570;6.060;2024-03-06T11:10:42;6.43;;;3.70;;
12699;SDS011;6414;49.570;6.060;2024-03-06T11:13:30;1.80;;;1.70;;
12699;SDS011;6414;49.570;6.060;2024-03-06T11:16:13;2.40;;;1.60;;
12699;SDS011;6414;49.570;6.060;2024-03-06T11:19:06;0.67;;;0.67;;
12699;SDS011;6414;49.570;6.060;2024-03-06T11:21:51;1.23;;;1.10;;
12699;SDS011;6414;49.570;6.060;2024-03-06T11:24:37;3.07;;;1.83;;
12699;SDS011;6414;49.570;6.060;2024-03-06T11:27:22;2.03;;;1.53;;
12699;SDS011;6414;49.570;6.060;2024-03-06T11:30:11;1.90;;;1.43;;
12699;SDS011;6414;49.570;6.060;2024-03-06T11:32:57;3.90;;;1.37;;
12699;SDS011;6414;49.570;6.060;2024-03-06T11:35:43;3.60;;;2.40;;
12699;SDS011;6414;49.570;6.060;2024-03-06T11:38:29;3.30;;;1.90;;
12699;SDS011;6414;49.570;6.060;2024-03-06T11:41:14;2.60;;;1.70;;
12699;SDS011;6414;49.570;6.060;2024-03-06T11:44:00;1.67;;;1.57;;
12699;SDS011;6414;49.570;6.060;2024-03-06T11:49:32;5.63;;;3.70;;
12699;SDS011;6414;49.570;6.060;2024-03-06T11:52:17;3.90;;;1.70;;
12699;SDS011;6414;49.570;6.060;2024-03-06T11:55:03;3.20;;;1.97;;
12699;SDS011;6414;49.570;6.060;2024-03-06T11:57:49;5.23;;;2.20;;
12699;SDS011;6414;49.570;6.060;2024-03-06T12:00:35;2.77;;;1.87;;
12699;SDS011;6414;49.570;6.060;2024-03-06T12:03:22;7.82;;;3.95;;
12699;SDS011;6414;49.570;6.060;2024-03-06T12:06:07;4.77;;;2.43;;
12699;SDS011;6414;49.570;6.060;2024-03-06T12:08:53;5.37;;;2.17;;
12699;SDS011;6414;49.570;6.060;2024-03-06T12:11:39;3.20;;;1.90;;
12699;SDS011;6414;49.570;6.060;2024-03-06T12:14:25;3.33;;;2.23;;
12699;SDS011;6414;49.570;6.060;2024-03-06T12:17:13;2.73;;;1.47;;
12699;SDS011;6414;49.570;6.060;2024-03-06T12:20:02;5.43;;;1.97;;
12699;SDS011;6414;49.570;6.060;2024-03-06T12:22:53;0.77;;;0.77;;
12699;SDS011;6414;49.570;6.060;2024-03-06T12:25:40;1.90;;;1.60;;
12699;SDS011;6414;49.570;6.060;2024-03-06T12:28:25;8.35;;;4.20;;
12699;SDS011;6414;49.570;6.060;2024-03-06T12:31:11;16.33;;;2.70;;
12699;SDS011;6414;49.570;6.060;2024-03-06T12:33:57;2.53;;;1.77;;
12699;SDS011;6414;49.570;6.060;2024-03-06T12:36:45;2.53;;;1.40;;
12699;SDS011;6414;49.570;6.060;2024-03-06T12:39:31;5.17;;;1.47;;
12699;SDS011;6414;49.570;6.060;2024-03-06T12:42:17;6.33;;;1.70;;
12699;SDS011;6414;49.570;6.060;2024-03-06T12:45:02;2.40;;;2.20;;
12699;SDS011;6414;49.570;6.060;2024-03-06T12:47:48;5.85;;;3.15;;
12699;SDS011;6414;49.570;6.060;2024-03-06T12:50:34;2.57;;;1.93;;
12699;SDS011;6414;49.570;6.060;2024-03-06T12:53:20;3.17;;;1.80;;
12699;SDS011;6414;49.570;6.060;2024-03-06T12:56:05;1.83;;;1.50;;
12699;SDS011;6414;49.570;6.060;2024-03-06T12:58:51;1.60;;;1.10;;
12699;SDS011;6414;49.570;6.060;2024-03-06T13:01:37;1.13;;;1.10;;
12699;SDS011;6414;49.570;6.060;2024-03-06T13:04:23;1.20;;;1.17;;
12699;SDS011;6414;49.570;6.060;2024-03-06T13:07:08;2.73;;;1.57;;
12699;SDS011;6414;49.570;6.060;2024-03-06T13:09:54;1.57;;;1.47;;
12699;SDS011;6414;49.570;6.060;2024-03-06T13:12:40;3.23;;;1.20;;
12699;SDS011;6414;49.570;6.060;2024-03-06T13:15:26;0.90;;;0.90;;
12699;SDS011;6414;49.570;6.060;2024-03-06T13:18:11;1.90;;;1.03;;
12699;SDS011;6414;49.570;6.060;2024-03-06T13:20:57;0.63;;;0.63;;
12699;SDS011;6414;49.570;6.060;2024-03-06T13:23:43;0.80;;;0.80;;
12699;SDS011;6414;49.570;6.060;2024-03-06T13:26:29;0.90;;;0.90;;
12699;SDS011;6414;49.570;6.060;2024-03-06T13:29:15;1.63;;;1.03;;
12699;SDS011;6414;49.570;6.060;2024-03-06T13:32:01;0.80;;;0.80;;
12699;SDS011;6414;49.570;6.060;2024-03-06T13:34:47;1.03;;;0.80;;
12699;SDS011;6414;49.570;6.060;2024-03-06T13:37:33;1.63;;;1.17;;
12699;SDS011;6414;49.570;6.060;2024-03-06T13:40:18;0.70;;;0.70;;
12699;SDS011;6414;49.570;6.060;2024-03-06T13:43:04;1.30;;;0.90;;
12699;SDS011;6414;49.570;6.060;2024-03-06T13:45:50;0.70;;;0.70;;
12699;SDS011;6414;49.570;6.060;2024-03-06T13:48:36;0.73;;;0.67;;
12699;SDS011;6414;49.570;6.060;2024-03-06T13:51:21;0.30;;;0.30;;
12699;SDS011;6414;49.570;6.060;2024-03-06T13:54:07;1.47;;;1.37;;
12699;SDS011;6414;49.570;6.060;2024-03-06T13:56:53;0.60;;;0.40;;
12699;SDS011;6414;49.570;6.060;2024-03-06T13:59:39;0.77;;;0.40;;
12699;SDS011;6414;49.570;6.060;2024-03-06T14:02:25;1.03;;;0.70;;
12699;SDS011;6414;49.570;6.060;2024-03-06T14:05:11;1.63;;;0.90;;
12699;SDS011;6414;49.570;6.060;2024-03-06T14:07:56;1.20;;;0.70;;
12699;SDS011;6414;49.570;6.060;2024-03-06T14:10:42;2.20;;;1.40;;
12699;SDS011;6414;49.570;6.060;2024-03-06T14:13:28;2.37;;;0.90;;
12699;SDS011;6414;49.570;6.060;2024-03-06T14:16:14;0.83;;;0.73;;
12699;SDS011;6414;49.570;6.060;2024-03-06T14:18:59;0.23;;;0.23;;
12699;SDS011;6414;49.570;6.060;2024-03-06T14:21:46;0.57;;;0.40;;
12699;SDS011;6414;49.570;6.060;2024-03-06T14:24:31;0.70;;;0.67;;
12699;SDS011;6414;49.570;6.060;2024-03-06T14:27:17;0.30;;;0.30;;
12699;SDS011;6414;49.570;6.060;2024-03-06T14:30:03;0.43;;;0.43;;
12699;SDS011;6414;49.570;6.060;2024-03-06T14:32:49;1.30;;;0.77;;
12699;SDS011;6414;49.570;6.060;2024-03-06T14:35:35;0.33;;;0.33;;
12699;SDS011;6414;49.570;6.060;2024-03-06T14:38:21;0.40;;;0.23;;
12699;SDS011;6414;49.570;6.060;2024-03-06T14:41:06;1.50;;;0.60;;
12699;SDS011;6414;49.570;6.060;2024-03-06T14:43:52;0.37;;;0.37;;
12699;SDS011;6414;49.570;6.060;2024-03-06T14:46:38;0.30;;;0.30;;
12699;SDS011;6414;49.570;6.060;2024-03-06T14:49:24;0.30;;;0.30;;
12699;SDS011;6414;49.570;6.060;2024-03-06T14:52:10;1.07;;;0.67;;
12699;SDS011;6414;49.570;6.060;2024-03-06T14:54:55;0.70;;;0.50;;
12699;SDS011;6414;49.570;6.060;2024-03-06T14:57:41;0.60;;;0.60;;
12699;SDS011;6414;49.570;6.060;2024-03-06T15:00:27;1.80;;;0.60;;
12699;SDS011;6414;49.570;6.060;2024-03-06T15:03:13;2.00;;;1.37;;
12699;SDS011;6414;49.570;6.060;2024-03-06T15:05:59;0.80;;;0.80;;
12699;SDS011;6414;49.570;6.060;2024-03-06T15:08:44;0.50;;;0.50;;
12699;SDS011;6414;49.570;6.060;2024-03-06T15:11:30;1.13;;;0.83;;
12699;SDS011;6414;49.570;6.060;2024-03-06T15:14:16;2.95;;;1.50;;
12699;SDS011;6414;49.570;6.060;2024-03-06T15:17:02;2.87;;;0.93;;
12699;SDS011;6414;49.570;6.060;2024-03-06T15:19:48;1.60;;;1.03;;
12699;SDS011;6414;49.570;6.060;2024-03-06T15:22:33;0.77;;;0.57;;
12699;SDS011;6414;49.570;6.060;2024-03-06T15:25:19;2.90;;;1.35;;
12699;SDS011;6414;49.570;6.060;2024-03-06T15:28:05;1.70;;;1.03;;
12699;SDS011;6414;49.570;6.060;2024-03-06T15:30:50;0.90;;;0.77;;
12699;SDS011;6414;49.570;6.060;2024-03-06T15:33:36;0.43;;;0.43;;
12699;SDS011;6414;49.570;6.060;2024-03-06T15:36:22;1.40;;;0.63;;
12699;SDS011;6414;49.570;6.060;2024-03-06T15:39:08;0.70;;;0.70;;
12699;SDS011;6414;49.570;6.060;2024-03-06T15:41:54;2.27;;;0.57;;
12699;SDS011;6414;49.570;6.060;2024-03-06T15:44:40;3.85;;;2.22;;
12699;SDS011;6414;49.570;6.060;2024-03-06T15:47:26;2.33;;;1.37;;
12699;SDS011;6414;49.570;6.060;2024-03-06T15:50:12;1.27;;;0.70;;
12699;SDS011;6414;49.570;6.060;2024-03-06T15:52:58;1.17;;;1.07;;
12699;SDS011;6414;49.570;6.060;2024-03-06T15:55:44;0.90;;;0.80;;
12699;SDS011;6414;49.570;6.060;2024-03-06T15:58:29;1.53;;;0.90;;
12699;SDS011;6414;49.570;6.060;2024-03-06T16:01:15;3.30;;;2.10;;
12699;SDS011;6414;49.570;6.060;2024-03-06T16:04:01;1.17;;;0.80;;
12699;SDS011;6414;49.570;6.060;2024-03-06T16:06:47;3.10;;;1.23;;
12699;SDS011;6414;49.570;6.060;2024-03-06T16:09:32;2.80;;;1.73;;
12699;SDS011;6414;49.570;6.060;2024-03-06T16:12:18;1.33;;;1.00;;
12699;SDS011;6414;49.570;6.060;2024-03-06T16:15:04;2.10;;;1.00;;
12699;SDS011;6414;49.570;6.060;2024-03-06T16:17:49;2.03;;;1.10;;
12699;SDS011;6414;49.570;6.060;2024-03-06T16:20:35;3.75;;;2.33;;
12699;SDS011;6414;49.570;6.060;2024-03-06T16:23:21;1.20;;;0.93;;
12699;SDS011;6414;49.570;6.060;2024-03-06T16:26:06;1.63;;;1.37;;
12699;SDS011;6414;49.570;6.060;2024-03-06T16:28:52;1.63;;;1.00;;
12699;SDS011;6414;49.570;6.060;2024-03-06T16:31:38;0.80;;;0.80;;
12699;SDS011;6414;49.570;6.060;2024-03-06T16:34:24;1.97;;;0.60;;
12699;SDS011;6414;49.570;6.060;2024-03-06T16:37:10;0.70;;;0.70;;
12699;SDS011;6414;49.570;6.060;2024-03-06T16:39:55;1.03;;;0.93;;
12699;SDS011;6414;49.570;6.060;2024-03-06T16:42:42;1.23;;;1.13;;
12699;SDS011;6414;49.570;6.060;2024-03-06T16:45:27;3.70;;;1.58;;
12699;SDS011;6414;49.570;6.060;2024-03-06T16:48:13;0.87;;;0.87;;
12699;SDS011;6414;49.570;6.060;2024-03-06T16:50:59;1.10;;;1.00;;
12699;SDS011;6414;49.570;6.060;2024-03-06T16:53:44;0.83;;;0.73;;
12699;SDS011;6414;49.570;6.060;2024-03-06T16:56:30;2.67;;;1.10;;